DNMM/LOS METAR and TAF weather

Enter ICAO airport designator
Station Type Date Time Source
DNMM METAR 2018/01/21 12:00 UTC NOAA

DNMM 211200Z 20004KT 8000 BKN014 32/24 Q1012 NOSIG


Station Type Date Time Source
DNMM Decoded METAR 2018/01/21 12:00 UTC NOAA

Lagos / Ikeja, Nigeria (DNMM) 06-35N 003-20E 38M
Jan 21, 2018 - 07:00 AM EST / 2018.01.21 1200 UTC
Wind: from the SSW (200 degrees) at 5 MPH (4 KT):0
Visibility: 4 mile(s):0
Sky conditions: mostly cloudy
Temperature: 89 F (32 C)
Heat index: 98.4 F (36.9 C):1
Dew Point: 75 F (24 C)
Relative Humidity: 62%
Pressure (altimeter): 29.88 in. Hg (1012 hPa)
ob: DNMM 211200Z 20004KT 8000 BKN014 32/24 Q1012 NOSIG
cycle: 12

Station Type Date Time Source
DNMM TAF 2018/01/21 12:21 UTC NOAA

TAF DNMM 210955Z 2112/2218 25010KT 8000 BKN013 PROB30
TEMPO 2113/2118 BKN013 FEW020CB
BECMG 2118/2120 VRB02KT FEW012


Example: see airport list